createdAt,value
2022-09-20T00:01:10.187Z,99461.53
2022-09-20T00:03:44.706Z,99456.84
2022-09-20T00:06:16.926Z,99454.22
2022-09-20T00:08:44.754Z,99460.25
2022-09-20T00:11:23.800Z,99457.13
2022-09-20T00:13:53.285Z,99462.97
2022-09-20T00:16:26.668Z,99450.41
2022-09-20T00:18:56.360Z,99460.72
2022-09-20T00:21:27.235Z,99461.22
2022-09-20T00:23:54.867Z,99455.00
2022-09-20T00:26:21.637Z,99448.06
2022-09-20T00:28:48.569Z,99448.25
2022-09-20T00:31:16.078Z,99445.63
2022-09-20T00:33:42.944Z,99445.41
2022-09-20T00:36:09.824Z,99448.81
2022-09-20T00:38:36.701Z,99444.88
2022-09-20T00:41:03.752Z,99434.88
2022-09-20T00:43:47.113Z,99442.00
2022-09-20T00:46:38.041Z,99437.03
2022-09-20T00:49:20.322Z,99433.13
2022-09-20T00:51:56.263Z,99438.59
2022-09-20T00:54:25.267Z,99443.66
2022-09-20T00:56:52.712Z,99439.19
2022-09-20T00:59:31.450Z,99439.94
2022-09-20T01:02:07.191Z,99446.75
2022-09-20T01:04:36.034Z,99438.41
2022-09-20T01:07:04.701Z,99444.44
2022-09-20T01:09:31.534Z,99440.25
2022-09-20T01:12:01.670Z,99430.78
2022-09-20T01:14:28.873Z,99433.41
2022-09-20T01:17:02.461Z,99428.16
2022-09-20T01:19:56.953Z,99435.06
2022-09-20T01:22:29.861Z,99427.09
2022-09-20T01:25:14.875Z,99427.38
2022-09-20T01:27:46.126Z,99421.84
2022-09-20T01:30:22.038Z,99422.63
2022-09-20T01:33:14.665Z,99426.03
2022-09-20T01:35:45.004Z,99426.53
2022-09-20T01:38:15.177Z,99423.03
2022-09-20T01:40:50.372Z,99421.53
2022-09-20T01:43:35.257Z,99435.47
2022-09-20T01:46:22.039Z,99429.63
2022-09-20T01:48:52.957Z,99425.13
2022-09-20T01:51:51.707Z,99431.78
2022-09-20T01:54:40.227Z,99423.97
2022-09-20T01:57:34.874Z,99425.34
2022-09-20T02:00:11.147Z,99419.59
2022-09-20T02:02:43.963Z,99418.13
2022-09-20T02:05:13.477Z,99420.28
2022-09-20T02:08:13.176Z,99431.59
2022-09-20T02:11:17.339Z,99433.72
2022-09-20T02:14:02.238Z,99428.84
2022-09-20T02:16:38.008Z,99426.78
2022-09-20T02:19:24.898Z,99427.09
2022-09-20T02:22:17.796Z,99418.63
2022-09-20T02:24:53.897Z,99425.06
2022-09-20T02:27:27.259Z,99434.50
2022-09-20T02:30:15.579Z,99419.97
2022-09-20T02:33:17.980Z,99423.69
2022-09-20T02:36:11.090Z,99426.31
2022-09-20T02:38:59.329Z,99431.97
2022-09-20T02:41:46.122Z,99429.53
2022-09-20T02:44:50.417Z,99444.22
2022-09-20T02:47:41.417Z,99441.13
2022-09-20T02:50:37.273Z,99441.31
2022-09-20T02:53:40.002Z,99444.34
2022-09-20T02:56:38.034Z,99448.53
2022-09-20T02:59:29.942Z,99447.38
2022-09-20T03:02:16.974Z,99449.22
2022-09-20T03:04:52.482Z,99447.84
2022-09-20T03:07:36.285Z,99440.81
2022-09-20T03:10:05.743Z,99443.84
2022-09-20T03:13:03.875Z,99448.03
2022-09-20T03:15:51.627Z,99448.63
2022-09-20T03:18:55.029Z,99444.91
2022-09-20T03:21:27.854Z,99445.50
2022-09-20T03:24:18.403Z,99444.50
2022-09-20T03:26:48.043Z,99450.03
2022-09-20T03:29:48.664Z,99447.72
2022-09-20T03:32:32.518Z,99441.31
2022-09-20T03:35:34.908Z,99442.28
2022-09-20T03:38:10.786Z,99447.81
2022-09-20T03:40:58.972Z,99451.06
2022-09-20T03:43:44.239Z,99463.91
2022-09-20T03:46:18.835Z,99452.41
2022-09-20T03:49:32.355Z,99456.59
2022-09-20T03:52:20.738Z,99469.47
2022-09-20T03:54:59.907Z,99462.72
2022-09-20T03:57:57.457Z,99461.38
2022-09-20T04:00:38.669Z,99463.28
2022-09-20T04:03:23.754Z,99459.69
2022-09-20T04:06:12.179Z,99464.94
2022-09-20T04:09:07.772Z,99473.19
2022-09-20T04:11:46.628Z,99464.03
2022-09-20T04:14:21.544Z,99477.69
2022-09-20T04:17:06.268Z,99488.19
2022-09-20T04:19:56.773Z,99483.31
2022-09-20T04:22:25.525Z,99487.56
2022-09-20T04:25:15.891Z,99481.44
2022-09-20T04:27:49.111Z,99487.56
2022-09-20T04:30:24.611Z,99489.34
2022-09-20T04:32:55.474Z,99488.47
2022-09-20T04:36:00.642Z,99487.84
2022-09-20T04:38:27.733Z,99491.34
2022-09-20T04:40:59.754Z,99499.03
2022-09-20T04:43:50.777Z,99508.75
2022-09-20T04:46:57.082Z,99503.09
2022-09-20T04:49:48.722Z,99505.97
2022-09-20T04:52:49.282Z,99506.63
2022-09-20T04:55:46.465Z,99520.47
2022-09-20T04:58:40.405Z,99512.09
2022-09-20T05:01:13.003Z,99512.66
2022-09-20T05:04:05.016Z,99518.50
2022-09-20T05:06:34.461Z,99516.63
2022-09-20T05:09:29.029Z,99520.56
2022-09-20T05:12:21.826Z,99516.34
2022-09-20T05:14:55.146Z,99515.00
2022-09-20T05:17:43.514Z,99525.03
2022-09-20T05:20:47.180Z,99526.63
2022-09-20T05:23:13.827Z,99528.69
2022-09-20T05:25:44.779Z,99524.00
2022-09-20T05:28:20.677Z,99529.47
2022-09-20T05:30:58.040Z,99532.97
2022-09-20T05:34:00.211Z,99531.34
2022-09-20T05:36:54.649Z,99541.28
2022-09-20T05:39:50.401Z,99554.06
2022-09-20T05:42:22.841Z,99548.59
2022-09-20T05:45:08.349Z,99554.63
2022-09-20T05:47:45.368Z,99552.00
2022-09-20T05:50:32.478Z,99551.53
2022-09-20T05:53:11.022Z,99554.06
2022-09-20T05:55:51.770Z,99554.34
2022-09-20T05:58:57.065Z,99562.94
2022-09-20T06:01:30.251Z,99570.91
2022-09-20T06:04:19.802Z,99569.81
2022-09-20T06:07:11.853Z,99577.16
2022-09-20T06:09:41.636Z,99578.00
2022-09-20T06:12:21.152Z,99585.31
2022-09-20T06:15:12.391Z,99584.53
2022-09-20T06:18:22.349Z,99589.22
2022-09-20T06:21:13.892Z,99590.28
2022-09-20T06:23:41.025Z,99588.44
2022-09-20T06:26:16.490Z,99588.66
2022-09-20T06:28:49.257Z,99591.56
2022-09-20T06:31:16.995Z,99588.66
2022-09-20T06:33:56.620Z,99580.41
2022-09-20T06:36:25.428Z,99589.84
2022-09-20T06:39:16.935Z,99589.06
2022-09-20T06:41:44.994Z,99583.66
2022-09-20T06:44:11.939Z,99576.19
2022-09-20T06:46:38.688Z,99570.72
2022-09-20T06:49:05.676Z,99584.34
2022-09-20T06:51:38.080Z,99593.25
2022-09-20T06:54:08.331Z,99590.63
2022-09-20T06:56:35.989Z,99587.69
2022-09-20T06:59:06.651Z,99596.00
2022-09-20T07:01:33.545Z,99598.53
2022-09-20T07:04:00.330Z,99598.47
2022-09-20T07:06:27.102Z,99607.69
2022-09-20T07:08:53.848Z,99603.22
2022-09-20T07:11:20.934Z,99601.56
2022-09-20T07:13:52.178Z,99602.59
2022-09-20T07:16:19.024Z,99604.41
2022-09-20T07:18:46.490Z,99605.22
2022-09-20T07:21:15.817Z,99605.91
2022-09-20T07:23:43.021Z,99613.00
2022-09-20T07:26:27.452Z,99610.06
2022-09-20T07:28:55.395Z,99614.56
2022-09-20T07:31:24.979Z,99612.22
2022-09-20T07:33:51.823Z,99616.38
2022-09-20T07:36:18.601Z,99621.91
2022-09-20T07:38:52.808Z,99622.63
2022-09-20T07:41:20.976Z,99628.47
2022-09-20T07:43:47.826Z,99628.47
2022-09-20T07:46:15.111Z,99625.31
2022-09-20T07:48:42.495Z,99634.28
2022-09-20T07:51:12.359Z,99629.03
2022-09-20T07:53:40.841Z,99633.72
2022-09-20T07:56:13.628Z,99632.47
2022-09-20T07:58:41.206Z,99628.41
2022-09-20T08:01:10.518Z,99630.97
2022-09-20T08:03:37.428Z,99627.94
2022-09-20T08:06:10.389Z,99625.31
2022-09-20T08:08:40.572Z,99631.09
2022-09-20T08:11:12.961Z,99630.19
2022-09-20T08:16:41.267Z,99632.53
2022-09-20T08:19:08.645Z,99628.84
2022-09-20T08:21:36.283Z,99633.53
2022-09-20T08:24:04.807Z,99631.28
2022-09-20T08:26:31.952Z,99631.94
2022-09-20T08:29:00.051Z,99632.09
2022-09-20T08:31:30.012Z,99632.41
2022-09-20T08:33:57.752Z,99632.66
2022-09-20T08:36:26.358Z,99633.44
2022-09-20T08:41:48.999Z,99631.69
2022-09-20T08:44:35.124Z,99630.50
2022-09-20T08:47:07.796Z,99629.47
2022-09-20T08:49:34.586Z,99626.34
2022-09-20T08:52:03.083Z,99622.31
2022-09-20T08:54:34.819Z,99620.75
2022-09-20T08:57:06.459Z,99622.50
2022-09-20T08:59:33.533Z,99615.47
2022-09-20T09:02:00.304Z,99624.84
2022-09-20T09:04:36.416Z,99631.84
2022-09-20T09:07:03.658Z,99629.72
2022-09-20T09:09:37.801Z,99616.03
2022-09-20T09:12:05.752Z,99616.81
2022-09-20T09:14:35.347Z,99616.81
2022-09-20T09:17:02.095Z,99609.56
2022-09-20T09:19:42.971Z,99601.50
2022-09-20T09:22:10.421Z,99614.41
2022-09-20T09:24:37.201Z,99612.06
2022-09-20T09:27:19.305Z,99601.84
2022-09-20T09:29:53.413Z,99603.16
2022-09-20T09:32:28.413Z,99602.38
2022-09-20T09:34:56.221Z,99601.75
2022-09-20T09:37:30.118Z,99595.38
2022-09-20T09:40:13.968Z,99593.25
2022-09-20T09:42:49.619Z,99591.72
2022-09-20T09:45:38.763Z,99587.41
2022-09-20T09:48:24.228Z,99589.69
2022-09-20T09:51:07.148Z,99591.53
2022-09-20T09:53:34.019Z,99589.22
2022-09-20T09:56:10.862Z,99595.09
2022-09-20T09:59:06.482Z,99590.97
2022-09-20T10:01:55.341Z,99594.41
2022-09-20T10:04:25.089Z,99597.19
2022-09-20T10:07:09.372Z,99597.00
2022-09-20T10:09:51.752Z,99587.44
2022-09-20T10:12:21.281Z,99581.94
2022-09-20T10:15:17.427Z,99576.13
2022-09-20T10:18:18.315Z,99573.59
2022-09-20T10:20:59.597Z,99570.03
2022-09-20T10:24:05.081Z,99564.22
2022-09-20T10:26:46.946Z,99559.97
2022-09-20T10:29:34.935Z,99569.53
2022-09-20T10:32:31.166Z,99570.06
2022-09-20T10:35:09.193Z,99571.50
2022-09-20T10:38:00.546Z,99585.38
2022-09-20T10:41:01.997Z,99609.53
2022-09-20T10:43:43.855Z,99601.75
2022-09-20T10:46:41.498Z,99581.44
2022-09-20T10:49:17.438Z,99574.84
2022-09-20T10:52:10.028Z,99582.19
2022-09-20T10:54:41.039Z,99590.59
2022-09-20T10:57:46.454Z,99594.78
2022-09-20T11:00:23.608Z,99598.91
2022-09-20T11:03:08.641Z,99598.31
2022-09-20T11:05:38.464Z,99597.34
2022-09-20T11:08:16.188Z,99592.66
2022-09-20T11:10:50.712Z,99584.81
2022-09-20T11:13:42.259Z,99586.22
2022-09-20T11:16:13.624Z,99586.41
2022-09-20T11:18:51.055Z,99584.75
2022-09-20T11:21:30.402Z,99598.59
2022-09-20T11:24:07.266Z,99598.19
2022-09-20T11:26:44.011Z,99605.44
2022-09-20T11:29:41.364Z,99613.03
2022-09-20T11:32:17.395Z,99626.91
2022-09-20T11:34:55.953Z,99624.72
2022-09-20T11:37:27.985Z,99619.44
2022-09-20T11:39:55.874Z,99625.97
2022-09-20T11:42:28.696Z,99624.28
2022-09-20T11:44:55.865Z,99617.56
2022-09-20T11:47:50.368Z,99613.75
2022-09-20T11:50:37.398Z,99609.59
2022-09-20T11:53:25.772Z,99615.13
2022-09-20T11:56:18.492Z,99608.13
2022-09-20T11:58:48.337Z,99616.56
2022-09-20T12:01:28.303Z,99616.00
2022-09-20T12:04:27.807Z,99619.34
2022-09-20T12:06:48.001Z,99610.88
2022-09-20T12:09:30.202Z,99614.53
2022-09-20T12:11:57.583Z,99611.22
2022-09-20T12:14:28.027Z,99635.50
2022-09-20T12:16:56.021Z,99635.25
2022-09-20T12:19:31.913Z,99634.63
2022-09-20T12:21:58.683Z,99624.03
2022-09-20T12:24:28.434Z,99633.50
2022-09-20T12:27:00.136Z,99642.47
2022-09-20T12:29:26.857Z,99630.56
2022-09-20T12:31:56.141Z,99641.38
2022-09-20T12:34:25.675Z,99639.84
2022-09-20T12:36:55.547Z,99645.09
2022-09-20T12:39:29.937Z,99631.19
2022-09-20T12:42:05.605Z,99630.50
2022-09-20T12:44:32.379Z,99628.06
2022-09-20T12:47:15.964Z,99631.56
2022-09-20T12:49:45.735Z,99623.56
2022-09-20T12:52:23.390Z,99629.09
2022-09-20T12:54:56.309Z,99629.06
2022-09-20T12:57:31.029Z,99626.66
2022-09-20T13:00:01.177Z,99630.25
2022-09-20T13:02:57.754Z,99631.53
2022-09-20T13:05:34.206Z,99629.94
2022-09-20T13:08:15.111Z,99625.84
2022-09-20T13:10:49.430Z,99623.84
2022-09-20T13:13:28.291Z,99617.81
2022-09-20T13:15:55.926Z,99617.25
2022-09-20T13:18:25.166Z,99616.94
2022-09-20T13:20:52.845Z,99615.91
2022-09-20T13:23:25.573Z,99627.00
2022-09-20T13:25:55.492Z,99623.59
2022-09-20T13:28:31.988Z,99618.31
2022-09-20T13:31:20.573Z,99617.03
2022-09-20T13:33:48.348Z,99615.06
2022-09-20T13:36:15.836Z,99613.69
2022-09-20T13:38:42.602Z,99619.25
2022-09-20T13:41:10.849Z,99616.91
2022-09-20T13:43:42.698Z,99610.66
2022-09-20T13:46:12.285Z,99613.94
2022-09-20T13:48:39.722Z,99618.00
2022-09-20T13:51:18.158Z,99611.75
2022-09-20T13:53:45.240Z,99609.38
2022-09-20T13:56:27.494Z,99613.09
2022-09-20T13:58:54.911Z,99608.03
2022-09-20T14:01:30.214Z,99597.88
2022-09-20T14:04:07.158Z,99611.06
2022-09-20T14:06:34.663Z,99602.66
2022-09-20T14:09:09.837Z,99600.09
2022-09-20T14:11:39.283Z,99595.34
2022-09-20T14:14:06.525Z,99605.59
2022-09-20T14:16:37.969Z,99599.09
2022-09-20T14:19:07.135Z,99594.59
2022-09-20T14:21:35.236Z,99604.25
2022-09-20T14:24:24.518Z,99596.47
2022-09-20T14:27:17.120Z,99593.63
2022-09-20T14:29:51.971Z,99593.00
2022-09-20T14:32:23.879Z,99604.63
2022-09-20T14:35:03.933Z,99606.19
2022-09-20T14:37:35.189Z,99601.81
2022-09-20T14:40:16.306Z,99598.28
2022-09-20T14:42:46.988Z,99608.03
2022-09-20T14:45:33.349Z,99617.09
2022-09-20T14:48:11.220Z,99607.75
2022-09-20T14:50:42.211Z,99615.03
2022-09-20T14:53:12.304Z,99618.22
2022-09-20T14:56:05.101Z,99611.00
2022-09-20T14:58:32.581Z,99623.88
2022-09-20T15:01:13.624Z,99624.00
2022-09-20T15:03:42.934Z,99626.13
2022-09-20T15:06:13.607Z,99638.34
2022-09-20T15:08:45.595Z,99646.38
2022-09-20T15:11:18.176Z,99654.00
2022-09-20T15:13:45.704Z,99650.78
2022-09-20T15:16:18.682Z,99654.41
2022-09-20T15:18:45.628Z,99662.00
2022-09-20T15:21:12.417Z,99671.16
2022-09-20T15:23:40.371Z,99675.72
2022-09-20T15:26:07.960Z,99676.13
2022-09-20T15:28:34.826Z,99663.16
2022-09-20T15:31:01.618Z,99671.78
2022-09-20T15:33:31.340Z,99671.38
2022-09-20T15:35:58.488Z,99672.13
2022-09-20T15:38:25.534Z,99671.66
2022-09-20T15:40:52.911Z,99671.25
2022-09-20T15:43:22.727Z,99671.41
2022-09-20T15:45:55.290Z,99683.13
2022-09-20T15:48:27.883Z,99695.88
2022-09-20T15:51:01.687Z,99693.09
2022-09-20T15:53:40.243Z,99696.84
2022-09-20T15:56:21.453Z,99698.91
2022-09-20T15:58:50.993Z,99690.81
2022-09-20T16:01:19.690Z,99702.88
2022-09-20T16:03:47.005Z,99702.97
2022-09-20T16:06:13.860Z,99701.59
2022-09-20T16:08:43.027Z,99695.28
2022-09-20T16:11:13.292Z,99707.72
2022-09-20T16:13:40.507Z,99713.03
2022-09-20T16:16:12.222Z,99703.66
2022-09-20T16:18:39.096Z,99699.03
2022-09-20T16:21:07.724Z,99693.59
2022-09-20T16:23:34.736Z,99692.25
2022-09-20T16:26:01.495Z,99688.06
2022-09-20T16:28:28.237Z,99687.84
2022-09-20T16:30:59.309Z,99696.56
2022-09-20T16:33:26.597Z,99690.81
2022-09-20T16:35:53.541Z,99687.97
2022-09-20T16:38:20.299Z,99689.81
2022-09-20T16:40:50.680Z,99692.44
2022-09-20T16:43:18.201Z,99697.97
2022-09-20T16:45:45.035Z,99709.56
2022-09-20T16:48:11.767Z,99710.94
2022-09-20T16:50:38.552Z,99713.34
2022-09-20T16:53:05.367Z,99716.75
2022-09-20T16:55:32.030Z,99714.59
2022-09-20T16:57:58.790Z,99725.91
2022-09-20T17:00:25.663Z,99717.81
2022-09-20T17:02:52.427Z,99724.09
2022-09-20T17:05:19.159Z,99720.44
2022-09-20T17:07:45.864Z,99734.38
2022-09-20T17:10:12.630Z,99738.13
2022-09-20T17:12:39.363Z,99743.66
2022-09-20T17:15:06.737Z,99744.97
2022-09-20T17:17:33.654Z,99744.25
2022-09-20T17:20:00.546Z,99751.63
2022-09-20T17:22:27.268Z,99752.16
2022-09-20T17:24:54.005Z,99758.53
2022-09-20T17:27:20.669Z,99761.72
2022-09-20T17:29:47.674Z,99768.03
2022-09-20T17:32:14.485Z,99775.91
2022-09-20T17:34:41.357Z,99781.16
2022-09-20T17:37:08.170Z,99790.59
2022-09-20T17:39:34.907Z,99781.94
2022-09-20T17:42:04.609Z,99783.72
2022-09-20T17:44:32.226Z,99781.63
2022-09-20T17:46:59.049Z,99784.25
2022-09-20T17:49:25.890Z,99787.66
2022-09-20T17:51:54.978Z,99787.34
2022-09-20T17:54:23.431Z,99786.28
2022-09-20T17:56:52.348Z,99789.97
2022-09-20T17:59:20.253Z,99786.06
2022-09-20T18:01:50.311Z,99783.44
2022-09-20T18:04:17.733Z,99793.69
2022-09-20T18:06:49.681Z,99792.66
2022-09-20T18:09:19.309Z,99793.69
2022-09-20T18:11:49.086Z,99798.94
2022-09-20T18:14:21.436Z,99799.22
2022-09-20T18:16:51.116Z,99807.09
2022-09-20T18:19:17.928Z,99799.28
2022-09-20T18:21:44.793Z,99806.59
2022-09-20T18:24:12.081Z,99805.00
2022-09-20T18:26:40.387Z,99803.72
2022-09-20T18:29:09.939Z,99805.00
2022-09-20T18:31:48.091Z,99801.03
2022-09-20T18:34:17.304Z,99804.19
2022-09-20T18:36:46.579Z,99809.97
2022-09-20T18:39:13.399Z,99811.03
2022-09-20T18:41:40.518Z,99809.97
2022-09-20T18:44:07.761Z,99821.00
2022-09-20T18:46:35.619Z,99821.00
2022-09-20T18:49:02.370Z,99820.47
2022-09-20T18:51:29.291Z,99830.97
2022-09-20T18:53:57.130Z,99825.72
2022-09-20T18:56:33.621Z,99829.41
2022-09-20T18:59:03.342Z,99817.09
2022-09-20T19:01:48.266Z,99825.25
2022-09-20T19:04:32.194Z,99819.72
2022-09-20T19:07:08.023Z,99833.88
2022-09-20T19:10:01.317Z,99835.69
2022-09-20T19:12:35.310Z,99828.88
2022-09-20T19:15:10.932Z,99835.50
2022-09-20T19:17:57.724Z,99843.66
2022-09-20T19:20:33.907Z,99832.66
2022-09-20T19:23:34.224Z,99833.19
2022-09-20T19:26:18.958Z,99842.13
2022-09-20T19:28:46.794Z,99841.59
2022-09-20T19:31:25.702Z,99841.06
2022-09-20T19:33:55.163Z,99847.63
2022-09-20T19:36:44.736Z,99843.16
2022-09-20T19:39:39.168Z,99838.66
2022-09-20T19:42:35.106Z,99849.22
2022-09-20T19:45:32.489Z,99849.22
2022-09-20T19:48:14.579Z,99849.75
2022-09-20T19:50:46.386Z,99860.59
2022-09-20T19:53:18.249Z,99854.28
2022-09-20T19:55:53.227Z,99864.25
2022-09-20T19:58:20.290Z,99861.13
2022-09-20T20:00:48.110Z,99868.47
2022-09-20T20:03:16.228Z,99867.91
2022-09-20T20:05:53.089Z,99864.47
2022-09-20T20:08:39.232Z,99876.81
2022-09-20T20:11:12.284Z,99880.00
2022-09-20T20:13:49.414Z,99885.75
2022-09-20T20:16:32.300Z,99889.75
2022-09-20T20:19:08.677Z,99890.00
2022-09-20T20:21:55.455Z,99899.16
2022-09-20T20:24:52.485Z,99886.84
2022-09-20T20:27:20.786Z,99901.56
2022-09-20T20:29:47.736Z,99901.00
2022-09-20T20:32:14.446Z,99898.88
2022-09-20T20:34:42.445Z,99895.22
2022-09-20T20:37:09.516Z,99898.63
2022-09-20T20:39:36.378Z,99902.84
2022-09-20T20:42:04.070Z,99904.66
2022-09-20T20:44:32.150Z,99905.19
2022-09-20T20:47:00.593Z,99905.19
2022-09-20T20:49:27.971Z,99907.28
2022-09-20T20:51:54.748Z,99907.81
2022-09-20T20:54:21.697Z,99907.81
2022-09-20T20:56:48.562Z,99908.06
2022-09-20T20:59:15.273Z,99909.38
2022-09-20T21:01:42.017Z,99915.16
2022-09-20T21:04:09.357Z,99917.00
2022-09-20T21:06:38.261Z,99929.06
2022-09-20T21:09:05.966Z,99925.41
2022-09-20T21:11:37.354Z,99925.13
2022-09-20T21:14:06.043Z,99926.44
2022-09-20T21:16:35.473Z,99936.69
2022-09-20T21:19:03.375Z,99933.81
2022-09-20T21:21:41.045Z,99938.00
2022-09-20T21:24:09.975Z,99940.09
2022-09-20T21:26:38.686Z,99941.94
2022-09-20T21:29:08.479Z,99939.84
2022-09-20T21:31:38.901Z,99959.22
2022-09-20T21:34:10.569Z,99954.53
2022-09-20T21:36:39.167Z,99948.25
2022-09-20T21:39:06.427Z,99960.03
2022-09-20T21:41:35.805Z,99955.06
2022-09-20T21:44:05.098Z,99951.13
2022-09-20T21:46:40.333Z,99961.09
2022-09-20T21:49:12.185Z,99964.78
2022-09-20T21:51:40.517Z,99963.47
2022-09-20T21:54:07.641Z,99971.06
2022-09-20T21:56:36.439Z,99968.72
2022-09-20T21:59:04.726Z,99969.50
2022-09-20T22:01:33.608Z,99969.75
2022-09-20T22:04:03.814Z,99970.53
2022-09-20T22:06:33.538Z,99968.19
2022-09-20T22:09:02.656Z,99967.13
2022-09-20T22:11:31.819Z,99971.34
2022-09-20T22:13:59.811Z,99970.28
2022-09-20T22:16:31.799Z,99968.19
2022-09-20T22:19:00.896Z,99971.84
2022-09-20T22:21:29.088Z,99972.91
2022-09-20T22:24:01.738Z,99970.53
2022-09-20T22:26:31.628Z,99977.59
2022-09-20T22:28:58.569Z,99971.56
2022-09-20T22:31:28.474Z,99969.47
2022-09-20T22:33:57.515Z,99973.41
2022-09-20T22:36:27.441Z,99979.72
2022-09-20T22:38:54.405Z,99974.47
2022-09-20T22:41:22.164Z,99971.03
2022-09-20T22:43:49.693Z,99972.38
2022-09-20T22:46:19.264Z,99965.28
2022-09-20T22:48:46.235Z,99977.88
2022-09-20T22:51:16.395Z,99964.72
2022-09-20T22:53:43.954Z,99961.31
2022-09-20T22:56:14.774Z,99963.16
2022-09-20T22:58:44.465Z,99957.38
2022-09-20T23:01:15.386Z,99962.09
2022-09-20T23:03:45.214Z,99959.25
2022-09-20T23:06:20.414Z,99967.09
2022-09-20T23:08:53.049Z,99970.25
2022-09-20T23:11:20.696Z,99967.63
2022-09-20T23:13:47.638Z,99970.00
2022-09-20T23:16:17.360Z,99967.91
2022-09-20T23:18:48.658Z,99962.38
2022-09-20T23:21:16.746Z,99967.66
2022-09-20T23:23:44.574Z,99971.34
2022-09-20T23:26:18.999Z,99971.88
2022-09-20T23:28:52.349Z,99974.50
2022-09-20T23:31:19.963Z,99981.31
2022-09-20T23:33:51.609Z,99981.56
2022-09-20T23:36:20.449Z,99972.16
2022-09-20T23:38:48.049Z,99977.63
2022-09-20T23:41:18.297Z,99974.25
2022-09-20T23:43:45.669Z,99971.88
2022-09-20T23:46:15.690Z,99978.69
2022-09-20T23:48:42.509Z,99984.19
2022-09-20T23:51:12.411Z,99979.47
2022-09-20T23:53:40.073Z,99978.94
2022-09-20T23:56:07.943Z,99975.78
2022-09-20T23:58:37.089Z,99972.34
